Time;durP1;ratioP1;P1;durP2;ratioP2;P2;SDS_P1;SDS_P2;PMS_P1;PMS_P2;Temp;Humidity;BMP_temperature;BMP_pressure;BME280_temperature;BME280_humidity;BME280_pressure;Samples;Min_cycle;Max_cycle;Signal;HPM_P1;HPM_P2
2021/04/21 00:02:15;;;;;;;4.70;3.70;;;;;;;;;;5023728;28;20225;-47
2021/04/21 00:04:46;;;;;;;5.70;4.00;;;;;;;;;;5014846;28;20898;-54
2021/04/21 00:07:19;;;;;;;5.33;4.30;;;;;;;;;;5022606;28;20698;-47
2021/04/21 00:09:52;;;;;;;5.63;3.83;;;;;;;;;;5020342;28;20649;-47
2021/04/21 00:12:18;;;;;;;5.40;4.00;;;;;;;;;;5016759;28;20203;-49
2021/04/21 00:14:49;;;;;;;6.17;4.13;;;;;;;;;;5026059;28;20193;-49
2021/04/21 00:17:15;;;;;;;6.10;3.77;;;;;;;;;;5020049;28;20284;-47
2021/04/21 00:19:43;;;;;;;5.63;4.07;;;;;;;;;;5023450;28;20719;-48
2021/04/21 00:22:15;;;;;;;5.93;3.27;;;;;;;;;;5023648;28;20265;-48
2021/04/21 00:24:42;;;;;;;4.57;3.17;;;;;;;;;;5020852;28;20218;-47
2021/04/21 00:27:08;;;;;;;6.50;3.67;;;;;;;;;;5021605;28;20218;-49
2021/04/21 00:29:36;;;;;;;4.80;3.60;;;;;;;;;;5023721;28;20214;-48
2021/04/21 00:32:04;;;;;;;5.87;3.50;;;;;;;;;;5023243;28;20277;-48
2021/04/21 00:34:37;;;;;;;4.60;3.00;;;;;;;;;;5039945;28;20281;-47
2021/04/21 00:37:03;;;;;;;7.60;4.17;;;;;;;;;;5025940;28;20198;-48
2021/04/21 00:39:33;;;;;;;8.80;3.87;;;;;;;;;;5011816;28;20195;-47
2021/04/21 00:42:17;;;;;;;8.03;4.73;;;;;;;;;;5024787;28;20195;-47
2021/04/21 00:44:47;;;;;;;4.03;3.60;;;;;;;;;;5024071;28;20190;-49
2021/04/21 00:47:21;;;;;;;5.70;3.97;;;;;;;;;;5024238;28;20303;-50
2021/04/21 00:50:08;;;;;;;6.63;4.30;;;;;;;;;;5019197;28;20683;-48
2021/04/21 00:52:50;;;;;;;5.43;3.97;;;;;;;;;;5012836;28;20897;-47
2021/04/21 00:55:44;;;;;;;4.77;3.80;;;;;;;;;;5027874;28;20206;-48
2021/04/21 00:58:45;;;;;;;6.80;3.67;;;;;;;;;;5025830;28;20231;-47
2021/04/21 01:01:11;;;;;;;4.63;3.57;;;;;;;;;;5025709;28;20194;-48
2021/04/21 01:03:40;;;;;;;5.97;3.73;;;;;;;;;;5028896;28;20186;-46
2021/04/21 01:06:14;;;;;;;6.33;4.03;;;;;;;;;;5020900;28;20272;-49
2021/04/21 01:08:49;;;;;;;6.70;3.57;;;;;;;;;;5028154;28;20237;-48
2021/04/21 01:11:27;;;;;;;3.73;3.33;;;;;;;;;;5034033;28;20201;-48
2021/04/21 01:13:56;;;;;;;4.90;3.83;;;;;;;;;;5026456;28;20644;-51
2021/04/21 01:16:24;;;;;;;5.23;4.30;;;;;;;;;;5020865;28;20269;-49
2021/04/21 01:18:53;;;;;;;5.57;3.17;;;;;;;;;;5025920;28;20182;-50
2021/04/21 01:21:28;;;;;;;4.60;3.50;;;;;;;;;;5028179;28;20706;-49
2021/04/21 01:24:08;;;;;;;4.47;3.27;;;;;;;;;;5019978;28;20814;-51
2021/04/21 01:26:52;;;;;;;7.83;3.87;;;;;;;;;;5023162;28;20588;-50
2021/04/21 01:29:24;;;;;;;7.87;4.13;;;;;;;;;;5023408;28;20710;-50
2021/04/21 01:31:54;;;;;;;4.30;3.47;;;;;;;;;;5026886;28;20217;-50
2021/04/21 01:34:24;;;;;;;5.97;3.57;;;;;;;;;;5025025;28;20199;-49
2021/04/21 01:36:51;;;;;;;6.93;3.70;;;;;;;;;;5027464;28;20272;-50
2021/04/21 01:39:17;;;;;;;4.10;3.33;;;;;;;;;;5026830;28;20187;-50
2021/04/21 01:41:46;;;;;;;4.17;3.23;;;;;;;;;;5029683;28;20206;-51
2021/04/21 01:44:25;;;;;;;5.07;3.37;;;;;;;;;;5022552;28;20684;-49
2021/04/21 01:46:59;;;;;;;4.33;2.97;;;;;;;;;;5022949;28;20709;-49
2021/04/21 01:49:47;;;;;;;4.70;2.80;;;;;;;;;;5023562;28;20192;-48
2021/04/21 01:52:43;;;;;;;5.03;3.10;;;;;;;;;;5025983;28;20225;-50
2021/04/21 01:55:39;;;;;;;4.57;2.97;;;;;;;;;;5021917;28;20786;-49
2021/04/21 01:58:16;;;;;;;4.50;2.90;;;;;;;;;;5023935;28;20785;-51
2021/04/21 02:00:47;;;;;;;6.00;3.60;;;;;;;;;;5029463;28;20209;-49
2021/04/21 02:03:24;;;;;;;4.60;3.00;;;;;;;;;;5028575;28;20772;-49
2021/04/21 02:06:06;;;;;;;7.03;2.70;;;;;;;;;;5025895;28;20218;-51
2021/04/21 02:09:10;;;;;;;3.10;2.80;;;;;;;;;;5024988;28;20737;-49
2021/04/21 02:11:38;;;;;;;4.93;3.23;;;;;;;;;;5025191;28;20198;-49
2021/04/21 02:14:24;;;;;;;3.70;3.17;;;;;;;;;;5019438;28;20558;-50
2021/04/21 02:17:01;;;;;;;4.03;3.23;;;;;;;;;;5019291;28;20203;-50
2021/04/21 02:19:48;;;;;;;5.03;3.33;;;;;;;;;;5027700;28;20218;-49
2021/04/21 02:22:34;;;;;;;5.07;3.50;;;;;;;;;;5022409;28;20599;-50
2021/04/21 02:25:04;;;;;;;5.13;3.73;;;;;;;;;;5022326;28;20221;-49
2021/04/21 02:27:35;;;;;;;7.17;3.67;;;;;;;;;;5036764;28;20310;-49
2021/04/21 02:30:05;;;;;;;7.40;4.10;;;;;;;;;;5028968;28;20189;-48
2021/04/21 02:32:44;;;;;;;7.00;3.80;;;;;;;;;;5025573;28;20201;-48
2021/04/21 02:35:19;;;;;;;6.20;3.40;;;;;;;;;;5025351;28;20226;-49
2021/04/21 02:38:00;;;;;;;4.77;3.50;;;;;;;;;;5026131;28;20252;-50
2021/04/21 02:40:52;;;;;;;6.67;3.60;;;;;;;;;;5016136;28;20229;-49
2021/04/21 02:43:55;;;;;;;4.83;3.10;;;;;;;;;;5022856;28;20198;-49
2021/04/21 02:46:58;;;;;;;2.50;2.30;;;;;;;;;;5026189;28;20272;-49
2021/04/21 02:49:38;;;;;;;3.70;2.07;;;;;;;;;;5003186;28;20210;-49
2021/04/21 02:52:10;;;;;;;4.23;2.30;;;;;;;;;;5024483;28;20206;-47
2021/04/21 02:54:54;;;;;;;2.60;2.40;;;;;;;;;;5021989;28;20257;-54
2021/04/21 02:57:48;;;;;;;4.40;2.47;;;;;;;;;;5021821;28;20631;-49
2021/04/21 03:00:22;;;;;;;2.87;2.47;;;;;;;;;;5016968;28;20576;-49
2021/04/21 03:03:13;;;;;;;4.20;2.80;;;;;;;;;;5039518;28;20265;-48
2021/04/21 03:05:45;;;;;;;3.80;2.77;;;;;;;;;;5014193;28;20663;-48
2021/04/21 03:08:23;;;;;;;3.67;2.57;;;;;;;;;;5025635;28;20191;-49
2021/04/21 03:11:04;;;;;;;2.83;2.57;;;;;;;;;;5019436;28;20206;-49
2021/04/21 03:13:33;;;;;;;2.93;2.53;;;;;;;;;;5015720;28;20313;-51
2021/04/21 03:16:06;;;;;;;3.33;2.30;;;;;;;;;;5015765;28;20211;-49
2021/04/21 03:18:36;;;;;;;3.23;2.93;;;;;;;;;;5021004;28;20194;-53
2021/04/21 03:21:09;;;;;;;3.83;2.83;;;;;;;;;;5020162;28;20219;-49
2021/04/21 03:23:39;;;;;;;5.33;3.10;;;;;;;;;;5022548;28;20286;-49
2021/04/21 03:26:08;;;;;;;4.13;3.00;;;;;;;;;;5021256;28;20214;-50
2021/04/21 03:28:45;;;;;;;3.60;2.87;;;;;;;;;;5032805;28;20261;-50
2021/04/21 03:31:14;;;;;;;3.60;2.97;;;;;;;;;;5027195;28;20568;-50
2021/04/21 03:33:50;;;;;;;4.63;3.57;;;;;;;;;;5024962;28;20279;-50
2021/04/21 03:36:20;;;;;;;5.20;3.50;;;;;;;;;;5026047;28;20230;-49
2021/04/21 03:38:47;;;;;;;7.50;3.43;;;;;;;;;;5022470;28;20236;-50
2021/04/21 03:41:17;;;;;;;5.00;4.00;;;;;;;;;;5027434;28;20195;-48
2021/04/21 03:43:43;;;;;;;6.07;4.63;;;;;;;;;;5024947;28;20193;-48
2021/04/21 03:46:12;;;;;;;4.93;4.00;;;;;;;;;;5022499;28;20210;-49
2021/04/21 03:48:43;;;;;;;6.67;3.23;;;;;;;;;;5019356;28;20268;-48
2021/04/21 03:51:14;;;;;;;6.17;3.17;;;;;;;;;;5023671;28;20722;-52
2021/04/21 03:53:43;;;;;;;7.17;4.77;;;;;;;;;;5028625;28;20209;-49
2021/04/21 03:56:16;;;;;;;6.93;4.77;;;;;;;;;;5017586;28;20261;-47
2021/04/21 03:58:45;;;;;;;8.37;4.60;;;;;;;;;;5019877;28;20244;-49
2021/04/21 04:01:17;;;;;;;5.10;3.80;;;;;;;;;;5022186;28;20273;-47
2021/04/21 04:04:06;;;;;;;5.07;3.70;;;;;;;;;;5021782;28;20604;-51
2021/04/21 04:06:41;;;;;;;14.17;3.93;;;;;;;;;;5026708;28;20203;-49
2021/04/21 04:09:09;;;;;;;7.10;3.20;;;;;;;;;;5023470;28;20558;-49
2021/04/21 04:11:42;;;;;;;4.33;2.80;;;;;;;;;;5017292;28;20188;-50
2021/04/21 04:14:14;;;;;;;6.90;2.97;;;;;;;;;;5019681;28;20195;-48
2021/04/21 04:16:42;;;;;;;4.07;2.60;;;;;;;;;;5021677;28;20202;-50
2021/04/21 04:19:15;;;;;;;4.77;2.83;;;;;;;;;;5025129;28;20301;-53
2021/04/21 04:21:42;;;;;;;5.13;3.30;;;;;;;;;;5024034;28;20256;-50
2021/04/21 04:24:12;;;;;;;2.93;2.40;;;;;;;;;;5018268;28;20226;-50
2021/04/21 04:26:42;;;;;;;5.60;3.10;;;;;;;;;;5024842;28;20207;-50
2021/04/21 04:29:11;;;;;;;6.07;4.30;;;;;;;;;;5022652;28;20174;-51
2021/04/21 04:31:39;;;;;;;5.40;4.03;;;;;;;;;;5018998;28;20206;-50
2021/04/21 04:34:06;;;;;;;8.80;3.80;;;;;;;;;;5019824;28;20212;-52
2021/04/21 04:36:38;;;;;;;5.27;3.53;;;;;;;;;;5019240;28;20591;-50
2021/04/21 04:39:09;;;;;;;4.60;3.63;;;;;;;;;;5018313;28;20238;-48
2021/04/21 04:41:39;;;;;;;5.60;3.43;;;;;;;;;;5024516;28;20195;-48
2021/04/21 04:44:06;;;;;;;6.83;3.83;;;;;;;;;;5021323;28;20332;-51
2021/04/21 04:46:39;;;;;;;6.33;3.97;;;;;;;;;;5022671;28;20235;-50
2021/04/21 04:49:14;;;;;;;6.20;3.60;;;;;;;;;;5020660;28;20250;-50
2021/04/21 04:51:43;;;;;;;6.97;3.93;;;;;;;;;;5023640;28;20201;-50
2021/04/21 04:54:13;;;;;;;7.93;3.70;;;;;;;;;;5018219;28;20815;-49
2021/04/21 04:56:41;;;;;;;5.17;3.93;;;;;;;;;;5022255;28;20250;-49
2021/04/21 04:59:12;;;;;;;5.27;3.83;;;;;;;;;;5022297;28;20207;-51
2021/04/21 05:01:57;;;;;;;6.73;4.10;;;;;;;;;;5023782;28;20243;-47
2021/04/21 05:04:31;;;;;;;7.00;3.90;;;;;;;;;;5020098;28;20202;-49
2021/04/21 05:07:02;;;;;;;4.43;3.70;;;;;;;;;;5033586;28;20274;-50
2021/04/21 05:09:32;;;;;;;8.57;4.33;;;;;;;;;;5019052;28;20569;-48
2021/04/21 05:12:05;;;;;;;5.10;3.90;;;;;;;;;;5025892;28;20267;-50
2021/04/21 05:14:33;;;;;;;6.47;4.60;;;;;;;;;;5025472;28;20279;-48
2021/04/21 05:16:58;;;;;;;6.00;4.17;;;;;;;;;;5020631;28;20178;-51
2021/04/21 05:19:48;;;;;;;6.53;4.83;;;;;;;;;;5022254;28;20198;-52
2021/04/21 05:22:50;;;;;;;8.27;5.40;;;;;;;;;;5019541;28;20947;-50
2021/04/21 05:25:34;;;;;;;9.13;5.67;;;;;;;;;;5020659;28;20235;-49
2021/04/21 05:28:30;;;;;;;9.03;6.07;;;;;;;;;;5026030;28;20194;-50
2021/04/21 05:31:16;;;;;;;12.30;6.50;;;;;;;;;;5018811;28;20195;-49
2021/04/21 05:34:06;;;;;;;7.60;5.67;;;;;;;;;;5029365;28;20558;-49
2021/04/21 05:37:26;;;;;;;10.13;5.87;;;;;;;;;;5024943;28;20206;-50
2021/04/21 05:40:29;;;;;;;10.30;6.33;;;;;;;;;;5026118;28;20268;-48
2021/04/21 05:43:28;;;;;;;10.20;6.60;;;;;;;;;;5025532;28;20676;-48
2021/04/21 05:46:05;;;;;;;9.50;6.73;;;;;;;;;;5023083;28;20237;-49
2021/04/21 05:49:09;;;;;;;10.67;6.30;;;;;;;;;;5034037;28;20254;-50
2021/04/21 05:51:53;;;;;;;8.10;6.43;;;;;;;;;;5001003;28;20203;-50
2021/04/21 05:54:40;;;;;;;12.00;6.73;;;;;;;;;;5024726;28;20198;-47
2021/04/21 05:57:22;;;;;;;14.23;6.77;;;;;;;;;;5023373;28;20197;-49
2021/04/21 06:00:28;;;;;;;10.83;5.93;;;;;;;;;;5029202;28;20340;-48
2021/04/21 06:02:54;;;;;;;9.53;5.47;;;;;;;;;;5027129;28;20221;-50
2021/04/21 06:05:20;;;;;;;8.07;5.50;;;;;;;;;;5024316;28;20610;-49
2021/04/21 06:07:45;;;;;;;12.63;6.00;;;;;;;;;;5017685;28;20196;-49
2021/04/21 06:10:32;;;;;;;9.93;6.67;;;;;;;;;;5026023;28;20187;-49
2021/04/21 06:13:05;;;;;;;13.07;6.70;;;;;;;;;;5021703;28;20210;-50
2021/04/21 06:15:35;;;;;;;13.93;7.83;;;;;;;;;;5024556;28;20277;-48
2021/04/21 06:18:05;;;;;;;12.60;6.87;;;;;;;;;;5024501;28;20854;-46
2021/04/21 06:20:42;;;;;;;11.43;6.93;;;;;;;;;;5024313;28;20210;-50
2021/04/21 06:23:19;;;;;;;10.73;6.33;;;;;;;;;;5024351;28;20670;-50
2021/04/21 06:25:49;;;;;;;10.33;6.43;;;;;;;;;;5020862;28;20304;-46
2021/04/21 06:28:22;;;;;;;10.80;6.67;;;;;;;;;;5027692;28;20225;-49
2021/04/21 06:30:52;;;;;;;12.43;6.90;;;;;;;;;;5017504;28;20178;-50
2021/04/21 06:33:20;;;;;;;14.60;6.20;;;;;;;;;;5027058;28;20662;-49
2021/04/21 06:35:45;;;;;;;9.00;5.73;;;;;;;;;;5014213;28;20207;-48
2021/04/21 06:38:15;;;;;;;9.30;5.93;;;;;;;;;;5025910;28;20767;-48
2021/04/21 06:40:41;;;;;;;10.90;6.20;;;;;;;;;;5016801;28;20211;-48
2021/04/21 06:43:12;;;;;;;11.70;6.07;;;;;;;;;;5018059;28;20653;-49
2021/04/21 06:45:40;;;;;;;10.97;5.67;;;;;;;;;;5025719;28;20210;-51
2021/04/21 06:48:06;;;;;;;12.85;5.80;;;;;;;;;;5026525;28;21298;-49
2021/04/21 06:50:39;;;;;;;10.38;5.65;;;;;;;;;;5026346;28;20734;-49
2021/04/21 06:53:11;;;;;;;13.57;6.50;;;;;;;;;;5017612;28;20573;-49
2021/04/21 06:55:39;;;;;;;10.30;6.22;;;;;;;;;;5020349;28;20217;-49
2021/04/21 06:58:28;;;;;;;12.25;6.93;;;;;;;;;;5022386;28;20191;-50
2021/04/21 07:00:56;;;;;;;13.00;7.07;;;;;;;;;;5020747;28;20199;-49
2021/04/21 07:03:25;;;;;;;13.20;7.22;;;;;;;;;;5020784;28;20206;-47
2021/04/21 07:05:54;;;;;;;14.95;7.32;;;;;;;;;;5022387;28;20592;-49
2021/04/21 07:08:34;;;;;;;15.90;7.65;;;;;;;;;;5022982;28;20217;-51
2021/04/21 07:11:04;;;;;;;13.85;7.55;;;;;;;;;;5026133;28;20190;-51
2021/04/21 07:13:49;;;;;;;16.83;8.82;;;;;;;;;;5025651;28;20236;-48
2021/04/21 07:16:18;;;;;;;13.75;8.20;;;;;;;;;;5021603;28;20240;-52
2021/04/21 07:18:49;;;;;;;13.15;8.82;;;;;;;;;;5024400;28;20194;-49
2021/04/21 07:21:18;;;;;;;10.75;7.90;;;;;;;;;;5025334;28;20194;-49
2021/04/21 07:23:54;;;;;;;12.45;8.25;;;;;;;;;;5016079;28;20195;-46
2021/04/21 07:26:31;;;;;;;14.55;9.15;;;;;;;;;;5024996;28;20575;-48
2021/04/21 07:28:56;;;;;;;11.68;8.63;;;;;;;;;;5014540;28;20200;-49
2021/04/21 07:31:22;;;;;;;13.73;8.65;;;;;;;;;;5024290;28;20564;-49
2021/04/21 07:33:50;;;;;;;13.55;9.68;;;;;;;;;;5023386;28;20194;-49
2021/04/21 07:36:30;;;;;;;15.35;8.88;;;;;;;;;;5021221;28;20194;-49
2021/04/21 07:39:05;;;;;;;15.13;9.20;;;;;;;;;;5014402;28;20243;-52
2021/04/21 07:41:41;;;;;;;17.35;9.65;;;;;;;;;;5024038;28;20197;-51
2021/04/21 07:44:29;;;;;;;16.08;8.80;;;;;;;;;;5023858;28;20206;-50
2021/04/21 07:47:12;;;;;;;15.80;9.43;;;;;;;;;;5020311;28;20900;-49
2021/04/21 07:49:59;;;;;;;14.50;8.38;;;;;;;;;;5034341;28;20332;-51
2021/04/21 07:52:29;;;;;;;15.48;9.25;;;;;;;;;;5023104;28;20237;-49
2021/04/21 07:55:14;;;;;;;14.05;9.82;;;;;;;;;;5021183;28;20583;-49
2021/04/21 07:57:44;;;;;;;15.05;9.73;;;;;;;;;;5013949;28;20190;-50
2021/04/21 08:00:14;;;;;;;17.58;9.23;;;;;;;;;;5017691;28;20293;-50
2021/04/21 08:02:45;;;;;;;10.65;7.70;;;;;;;;;;5018428;28;20198;-49
2021/04/21 08:05:13;;;;;;;12.15;8.32;;;;;;;;;;5014758;28;20214;-50
2021/04/21 08:07:45;;;;;;;19.38;6.50;;;;;;;;;;5016831;28;20260;-49
2021/04/21 08:10:19;;;;;;;11.30;6.68;;;;;;;;;;5016164;28;20192;-48
2021/04/21 08:12:46;;;;;;;12.27;7.25;;;;;;;;;;5021952;28;20252;-50
2021/04/21 08:15:17;;;;;;;9.43;6.78;;;;;;;;;;5019378;28;20205;-47
2021/04/21 08:17:51;;;;;;;9.85;6.93;;;;;;;;;;5013459;28;20264;-48
2021/04/21 08:20:23;;;;;;;11.38;6.80;;;;;;;;;;5015863;28;20236;-48
2021/04/21 08:23:00;;;;;;;11.77;6.70;;;;;;;;;;5016935;28;20199;-48
2021/04/21 08:25:27;;;;;;;10.30;6.97;;;;;;;;;;5021280;28;20214;-49
2021/04/21 08:27:53;;;;;;;11.38;7.22;;;;;;;;;;5014163;28;20685;-48
2021/04/21 08:30:24;;;;;;;10.25;6.95;;;;;;;;;;5015008;28;20420;-51
2021/04/21 08:32:54;;;;;;;8.38;6.75;;;;;;;;;;5016266;28;20490;-50
2021/04/21 08:35:20;;;;;;;9.77;8.00;;;;;;;;;;5018216;28;20241;-50
2021/04/21 08:37:45;;;;;;;11.32;6.78;;;;;;;;;;5011583;28;20201;-49
2021/04/21 08:40:16;;;;;;;7.78;7.03;;;;;;;;;;5018803;28;20266;-53
2021/04/21 08:42:46;;;;;;;7.75;6.97;;;;;;;;;;5015278;28;20233;-50
2021/04/21 08:45:14;;;;;;;10.30;7.15;;;;;;;;;;5019970;28;20203;-50
2021/04/21 08:47:43;;;;;;;9.35;7.50;;;;;;;;;;5014864;28;20206;-49
2021/04/21 08:50:12;;;;;;;9.05;8.15;;;;;;;;;;5016832;28;20232;-49
2021/04/21 08:52:54;;;;;;;8.60;7.72;;;;;;;;;;5017169;28;20193;-49
2021/04/21 08:55:25;;;;;;;10.60;7.60;;;;;;;;;;5018126;28;20214;-50
2021/04/21 08:57:54;;;;;;;9.68;7.82;;;;;;;;;;5019438;28;20186;-49
2021/04/21 09:00:21;;;;;;;9.45;8.55;;;;;;;;;;5019035;28;20222;-49
2021/04/21 09:02:49;;;;;;;13.10;8.57;;;;;;;;;;5020071;28;20683;-49
2021/04/21 09:05:20;;;;;;;10.20;9.10;;;;;;;;;;5018869;28;20210;-50
2021/04/21 09:07:48;;;;;;;9.40;8.50;;;;;;;;;;5032808;28;20297;-51
2021/04/21 09:10:18;;;;;;;10.80;9.27;;;;;;;;;;5023947;28;20199;-49
2021/04/21 09:12:47;;;;;;;9.60;8.65;;;;;;;;;;5007532;28;20552;-49
2021/04/21 09:15:15;;;;;;;11.40;9.90;;;;;;;;;;5022107;28;20231;-50
2021/04/21 09:17:52;;;;;;;14.60;9.43;;;;;;;;;;5022673;28;20194;-49
2021/04/21 09:20:21;;;;;;;15.93;9.27;;;;;;;;;;5041977;28;20756;-48
2021/04/21 09:23:20;;;;;;;11.73;8.40;;;;;;;;;;5020968;28;20199;-49
2021/04/21 09:25:53;;;;;;;12.82;9.15;;;;;;;;;;5018922;28;20216;-47
2021/04/21 09:28:27;;;;;;;10.30;9.25;;;;;;;;;;5019231;28;20198;-48
2021/04/21 09:30:56;;;;;;;9.00;8.02;;;;;;;;;;5016806;28;20194;-48
2021/04/21 09:33:29;;;;;;;9.80;8.30;;;;;;;;;;5043009;28;20205;-47
2021/04/21 09:35:59;;;;;;;10.50;8.48;;;;;;;;;;5023364;28;20218;-49
2021/04/21 09:38:27;;;;;;;10.18;7.55;;;;;;;;;;5019578;28;20568;-47
2021/04/21 09:41:03;;;;;;;9.07;8.18;;;;;;;;;;5029102;28;20276;-48
2021/04/21 09:43:34;;;;;;;10.27;8.05;;;;;;;;;;5026167;28;20568;-48
2021/04/21 09:46:15;;;;;;;8.85;7.93;;;;;;;;;;5023723;28;20748;-49
2021/04/21 09:48:43;;;;;;;9.05;7.43;;;;;;;;;;5027115;28;20721;-49
2021/04/21 09:51:11;;;;;;;8.50;7.25;;;;;;;;;;5020400;28;20266;-48
2021/04/21 09:53:40;;;;;;;10.10;8.00;;;;;;;;;;5029581;28;20269;-48
2021/04/21 09:56:22;;;;;;;9.90;8.13;;;;;;;;;;5024816;28;20298;-48
2021/04/21 09:58:56;;;;;;;10.60;8.23;;;;;;;;;;5023735;28;20191;-48
2021/04/21 10:01:40;;;;;;;10.10;8.43;;;;;;;;;;5023708;28;20224;-50
2021/04/21 10:04:09;;;;;;;10.15;7.50;;;;;;;;;;5023238;28;20279;-48
2021/04/21 10:06:35;;;;;;;15.70;7.82;;;;;;;;;;5029062;28;20215;-48
2021/04/21 10:09:03;;;;;;;12.75;7.75;;;;;;;;;;5022925;28;20702;-49
2021/04/21 10:11:33;;;;;;;12.38;8.07;;;;;;;;;;5024569;28;20648;-48
2021/04/21 10:14:01;;;;;;;8.98;7.93;;;;;;;;;;5029363;28;20568;-50
2021/04/21 10:16:26;;;;;;;10.27;7.40;;;;;;;;;;5024709;28;20213;-48
2021/04/21 10:18:54;;;;;;;8.32;7.43;;;;;;;;;;5021410;28;20187;-47
2021/04/21 10:21:20;;;;;;;9.40;7.70;;;;;;;;;;5025432;28;20656;-48
2021/04/21 10:23:50;;;;;;;10.60;7.82;;;;;;;;;;5027802;28;20187;-47
2021/04/21 10:26:17;;;;;;;12.00;7.75;;;;;;;;;;5019299;28;20256;-47
2021/04/21 10:28:45;;;;;;;9.52;7.30;;;;;;;;;;5021866;28;20202;-48
2021/04/21 10:31:17;;;;;;;11.02;7.40;;;;;;;;;;5020843;28;20323;-48
2021/04/21 10:33:50;;;;;;;9.80;7.32;;;;;;;;;;5024161;28;20701;-48
2021/04/21 10:36:16;;;;;;;10.75;7.65;;;;;;;;;;5023859;28;20222;-47
2021/04/21 10:38:42;;;;;;;10.98;7.43;;;;;;;;;;5028474;28;20193;-48
2021/04/21 10:41:26;;;;;;;8.10;6.05;;;;;;;;;;5021152;28;20210;-48
2021/04/21 10:44:10;;;;;;;8.88;5.32;;;;;;;;;;5032799;28;20438;-47
2021/04/21 10:46:54;;;;;;;5.55;5.00;;;;;;;;;;5019147;28;20267;-47
2021/04/21 10:50:00;;;;;;;10.43;4.80;;;;;;;;;;5023851;28;20210;-47
2021/04/21 10:52:26;;;;;;;6.93;4.35;;;;;;;;;;5016849;28;20808;-47
2021/04/21 10:54:54;;;;;;;4.75;3.53;;;;;;;;;;5019443;28;20210;-47
2021/04/21 10:57:22;;;;;;;6.90;3.58;;;;;;;;;;5012807;28;20191;-50
2021/04/21 11:09:55;;;;;;;4.47;3.33;;;;;;;;;;5025165;28;20272;-49
2021/04/21 11:12:49;;;;;;;6.57;4.15;;;;;;;;;;5022346;28;20290;-49
2021/04/21 11:15:35;;;;;;;7.85;3.88;;;;;;;;;;5007470;28;20214;-49
2021/04/21 11:18:13;;;;;;;4.65;3.17;;;;;;;;;;5020415;28;20729;-49
2021/04/21 11:20:50;;;;;;;4.85;3.83;;;;;;;;;;5017067;28;20214;-49
2021/04/21 11:23:56;;;;;;;8.35;4.38;;;;;;;;;;5026272;28;20281;-50
2021/04/21 11:26:29;;;;;;;5.60;4.10;;;;;;;;;;5025122;28;20294;-47
2021/04/21 11:29:19;;;;;;;5.88;4.40;;;;;;;;;;5018636;28;20201;-48
2021/04/21 11:31:52;;;;;;;10.70;4.07;;;;;;;;;;5020256;28;20278;-48
2021/04/21 11:34:27;;;;;;;5.00;3.63;;;;;;;;;;5023857;28;20265;-49
2021/04/21 11:37:03;;;;;;;6.10;3.50;;;;;;;;;;5026776;28;20206;-50
2021/04/21 11:39:44;;;;;;;4.68;3.13;;;;;;;;;;5021881;28;20217;-49
2021/04/21 11:42:45;;;;;;;8.93;3.78;;;;;;;;;;5018394;28;20195;-49
2021/04/21 11:45:25;;;;;;;4.88;3.20;;;;;;;;;;5015989;28;20644;-49
2021/04/21 11:48:17;;;;;;;5.35;3.72;;;;;;;;;;5015134;28;20211;-50
2021/04/21 11:50:50;;;;;;;8.45;3.42;;;;;;;;;;5012540;28;20733;-49
2021/04/21 11:53:24;;;;;;;9.18;3.20;;;;;;;;;;5021271;28;20290;-49
2021/04/21 11:55:59;;;;;;;4.43;3.72;;;;;;;;;;5017674;28;20201;-48
2021/04/21 11:58:32;;;;;;;9.25;3.85;;;;;;;;;;5029724;28;20190;-49
2021/04/21 12:01:03;;;;;;;6.28;4.00;;;;;;;;;;5023544;28;20211;-49
2021/04/21 12:03:43;;;;;;;6.55;3.72;;;;;;;;;;5020903;28;20244;-50
2021/04/21 12:06:12;;;;;;;6.95;4.00;;;;;;;;;;5021058;28;20248;-50
2021/04/21 12:08:42;;;;;;;7.30;3.97;;;;;;;;;;5023192;28;20238;-49
2021/04/21 12:11:08;;;;;;;6.43;3.60;;;;;;;;;;5023021;28;20190;-50
2021/04/21 12:13:45;;;;;;;5.75;3.75;;;;;;;;;;5026023;28;20191;-49
2021/04/21 12:16:18;;;;;;;7.70;4.40;;;;;;;;;;5018243;28;20229;-49
2021/04/21 12:18:52;;;;;;;6.18;4.00;;;;;;;;;;5027685;28;20269;-49
2021/04/21 12:21:25;;;;;;;7.97;4.30;;;;;;;;;;5026398;28;20313;-49
2021/04/21 12:23:57;;;;;;;12.55;4.28;;;;;;;;;;5016466;28;20198;-49
2021/04/21 12:26:28;;;;;;;6.15;4.05;;;;;;;;;;5019716;28;20291;-49
2021/04/21 12:29:06;;;;;;;7.85;4.07;;;;;;;;;;5023395;28;20546;-49
2021/04/21 12:31:40;;;;;;;11.02;4.70;;;;;;;;;;5027210;28;20289;-49
2021/04/21 12:34:13;;;;;;;6.20;4.70;;;;;;;;;;5017813;28;20737;-50
2021/04/21 12:36:40;;;;;;;4.85;4.35;;;;;;;;;;5023343;28;20217;-50
2021/04/21 12:39:12;;;;;;;8.05;4.20;;;;;;;;;;5038362;28;20549;-49
2021/04/21 12:41:42;;;;;;;8.50;4.45;;;;;;;;;;5023787;28;20210;-50
2021/04/21 12:44:14;;;;;;;6.90;4.47;;;;;;;;;;5021161;28;20233;-49
2021/04/21 12:46:42;;;;;;;7.55;4.55;;;;;;;;;;5016050;28;20211;-49
2021/04/21 12:49:15;;;;;;;8.88;4.57;;;;;;;;;;5020799;28;20268;-49
2021/04/21 12:51:44;;;;;;;10.13;4.13;;;;;;;;;;5018147;28;20266;-49
2021/04/21 12:54:35;;;;;;;19.52;5.60;;;;;;;;;;5024781;28;20241;-49
2021/04/21 12:57:03;;;;;;;12.35;5.00;;;;;;;;;;5023736;28;20182;-53
2021/04/21 12:59:49;;;;;;;8.25;5.07;;;;;;;;;;5022502;28;21108;-48
2021/04/21 13:02:36;;;;;;;9.52;4.88;;;;;;;;;;5023240;28;20758;-49
2021/04/21 13:05:06;;;;;;;12.98;5.45;;;;;;;;;;5025853;28;20211;-50
2021/04/21 13:07:34;;;;;;;6.85;4.78;;;;;;;;;;5024625;28;20548;-49
2021/04/21 13:10:11;;;;;;;14.50;5.57;;;;;;;;;;5019893;28;20252;-49
2021/04/21 13:12:38;;;;;;;6.03;4.43;;;;;;;;;;5026970;28;20261;-48
2021/04/21 13:15:12;;;;;;;9.00;5.68;;;;;;;;;;5020231;28;20218;-50
2021/04/21 13:17:56;;;;;;;7.85;5.10;;;;;;;;;;5026680;28;20228;-48
2021/04/21 13:20:40;;;;;;;8.05;5.15;;;;;;;;;;5022822;28;20717;-48
2021/04/21 13:23:30;;;;;;;7.50;4.93;;;;;;;;;;5023201;28;20302;-48
2021/04/21 13:26:07;;;;;;;11.57;4.90;;;;;;;;;;5022457;28;21608;-49
2021/04/21 13:28:37;;;;;;;6.93;5.03;;;;;;;;;;5021788;28;20198;-49
2021/04/21 13:31:27;;;;;;;8.13;5.10;;;;;;;;;;5019538;28;20232;-48
2021/04/21 13:33:53;;;;;;;13.95;5.70;;;;;;;;;;5026291;28;20206;-49
2021/04/21 13:36:19;;;;;;;7.45;5.00;;;;;;;;;;5016022;28;20554;-52
2021/04/21 13:38:48;;;;;;;7.28;4.93;;;;;;;;;;5020011;28;20277;-54
2021/04/21 13:41:18;;;;;;;6.65;4.65;;;;;;;;;;5020271;28;20241;-50
2021/04/21 13:43:46;;;;;;;8.05;4.65;;;;;;;;;;5019244;28;20194;-48
2021/04/21 13:46:12;;;;;;;5.55;4.50;;;;;;;;;;5019093;28;20218;-49
2021/04/21 13:48:40;;;;;;;10.30;5.00;;;;;;;;;;5022731;28;20662;-48
2021/04/21 13:51:06;;;;;;;6.97;4.60;;;;;;;;;;5024771;28;20274;-49
2021/04/21 13:53:36;;;;;;;8.63;4.75;;;;;;;;;;5021951;28;20273;-51
2021/04/21 13:56:03;;;;;;;9.88;5.30;;;;;;;;;;5018402;28;20903;-48
2021/04/21 13:58:30;;;;;;;10.82;4.50;;;;;;;;;;5023322;28;20706;-49
2021/04/21 14:00:57;;;;;;;7.57;5.00;;;;;;;;;;5023720;28;20301;-47
2021/04/21 14:03:25;;;;;;;8.93;5.03;;;;;;;;;;5022617;28;20201;-47
2021/04/21 14:05:55;;;;;;;6.03;5.15;;;;;;;;;;5023614;28;20229;-48
2021/04/21 14:08:22;;;;;;;10.73;5.07;;;;;;;;;;5039933;28;20257;-49
2021/04/21 14:10:48;;;;;;;6.70;5.72;;;;;;;;;;5024706;28;20270;-47
2021/04/21 14:13:13;;;;;;;9.07;5.43;;;;;;;;;;5024631;28;20302;-49
2021/04/21 14:15:38;;;;;;;9.60;5.43;;;;;;;;;;5023253;28;20214;-53
2021/04/21 14:18:03;;;;;;;8.25;5.43;;;;;;;;;;5020497;28;20498;-51
2021/04/21 14:20:29;;;;;;;24.50;5.78;;;;;;;;;;5021239;28;20214;-50
2021/04/21 14:22:56;;;;;;;5.90;5.30;;;;;;;;;;5023979;28;20197;-47
2021/04/21 14:25:22;;;;;;;9.02;5.00;;;;;;;;;;5018971;28;20936;-48
2021/04/21 14:27:48;;;;;;;6.88;5.00;;;;;;;;;;5021410;28;20285;-52
2021/04/21 14:30:17;;;;;;;9.73;5.03;;;;;;;;;;5022509;28;20178;-48
2021/04/21 14:32:43;;;;;;;10.57;6.03;;;;;;;;;;5020283;28;20284;-47
2021/04/21 14:35:12;;;;;;;8.48;5.55;;;;;;;;;;5020208;28;20325;-48
2021/04/21 14:37:39;;;;;;;7.20;5.22;;;;;;;;;;5017585;28;20238;-48
2021/04/21 14:40:07;;;;;;;7.18;4.80;;;;;;;;;;5022351;28;20221;-49
2021/04/21 14:42:33;;;;;;;10.05;6.10;;;;;;;;;;5022077;28;20194;-48
2021/04/21 14:45:01;;;;;;;7.38;6.43;;;;;;;;;;5023096;28;20280;-47
2021/04/21 14:47:29;;;;;;;9.20;6.88;;;;;;;;;;5022792;28;20191;-50
2021/04/21 14:49:56;;;;;;;8.65;6.68;;;;;;;;;;5021426;28;20187;-48
2021/04/21 14:52:22;;;;;;;12.55;8.55;;;;;;;;;;5022789;28;20198;-50
2021/04/21 14:54:52;;;;;;;11.05;7.75;;;;;;;;;;5021461;28;20196;-51
2021/04/21 14:57:17;;;;;;;11.73;7.65;;;;;;;;;;5023856;28;20218;-51
2021/04/21 14:59:47;;;;;;;10.77;7.78;;;;;;;;;;5022298;28;20918;-48
2021/04/21 15:02:12;;;;;;;10.23;8.68;;;;;;;;;;5023361;28;20563;-50
2021/04/21 15:04:39;;;;;;;12.60;8.80;;;;;;;;;;5022495;28;20193;-48
2021/04/21 15:07:07;;;;;;;16.23;8.68;;;;;;;;;;5021802;28;20744;-48
2021/04/21 15:09:33;;;;;;;12.77;8.82;;;;;;;;;;5030991;28;20191;-48
2021/04/21 15:11:58;;;;;;;14.68;9.35;;;;;;;;;;5014991;28;20210;-49
2021/04/21 15:14:27;;;;;;;9.68;8.55;;;;;;;;;;5013369;28;20867;-49
2021/04/21 15:16:52;;;;;;;12.15;8.70;;;;;;;;;;5019383;28;20214;-48
2021/04/21 15:19:26;;;;;;;12.07;8.45;;;;;;;;;;5016488;28;20273;-48
2021/04/21 15:21:51;;;;;;;11.27;8.48;;;;;;;;;;5014036;28;20284;-49
2021/04/21 15:24:18;;;;;;;10.98;9.02;;;;;;;;;;5017469;28;20400;-50
2021/04/21 15:26:43;;;;;;;9.90;8.73;;;;;;;;;;5023007;28;20202;-49
2021/04/21 15:29:11;;;;;;;12.23;8.93;;;;;;;;;;5014214;28;20191;-49